createdAt,value
2023-02-27T00:00:55.292Z,4.07
2023-02-27T00:03:21.986Z,4.40
2023-02-27T00:05:48.940Z,4.13
2023-02-27T00:08:15.693Z,3.63
2023-02-27T00:10:42.429Z,4.50
2023-02-27T00:13:10.117Z,4.20
2023-02-27T00:15:38.313Z,3.87
2023-02-27T00:18:05.021Z,4.27
2023-02-27T00:20:37.672Z,4.63
2023-02-27T00:23:07.820Z,3.70
2023-02-27T00:25:35.503Z,4.40
2023-02-27T00:28:02.790Z,4.17
2023-02-27T00:30:29.500Z,5.40
2023-02-27T00:32:56.261Z,4.50
2023-02-27T00:35:23.122Z,4.50
2023-02-27T00:37:50.004Z,4.00
2023-02-27T00:40:17.566Z,4.23
2023-02-27T00:42:46.237Z,4.27
2023-02-27T00:45:13.032Z,3.97
2023-02-27T00:47:40.006Z,4.33
2023-02-27T00:50:07.100Z,4.57
2023-02-27T00:52:34.558Z,3.80
2023-02-27T00:55:01.256Z,4.50
2023-02-27T00:57:28.298Z,4.77
2023-02-27T00:59:54.960Z,4.40
2023-02-27T01:02:21.776Z,4.77
2023-02-27T01:04:48.770Z,4.30
2023-02-27T01:07:15.659Z,4.23
2023-02-27T01:09:42.539Z,4.80
2023-02-27T01:12:09.985Z,3.50
2023-02-27T01:14:36.740Z,3.50
2023-02-27T01:17:03.844Z,4.77
2023-02-27T01:19:30.609Z,4.03
2023-02-27T01:21:57.282Z,3.80
2023-02-27T01:24:24.068Z,4.23
2023-02-27T01:26:52.558Z,4.33
2023-02-27T01:29:19.729Z,3.83
2023-02-27T01:31:46.503Z,4.03
2023-02-27T01:34:13.195Z,4.70
2023-02-27T01:36:39.870Z,3.93
2023-02-27T01:39:06.783Z,3.87
2023-02-27T01:41:33.527Z,3.40
2023-02-27T01:44:03.921Z,3.90
2023-02-27T01:46:32.361Z,3.57
2023-02-27T01:49:21.765Z,4.07
2023-02-27T01:51:55.055Z,3.77
2023-02-27T01:54:25.870Z,3.63
2023-02-27T01:56:52.895Z,3.43
2023-02-27T01:59:21.378Z,4.17
2023-02-27T02:01:48.598Z,4.10
2023-02-27T02:04:28.132Z,3.67
2023-02-27T02:07:04.535Z,4.07
2023-02-27T02:09:43.509Z,4.37
2023-02-27T02:12:13.645Z,3.77
2023-02-27T02:14:40.321Z,3.53
2023-02-27T02:17:15.838Z,3.47
2023-02-27T02:20:17.865Z,3.70
2023-02-27T02:23:22.660Z,3.80
2023-02-27T02:26:19.647Z,4.00
2023-02-27T02:29:19.770Z,3.80
2023-02-27T02:32:07.529Z,3.27
2023-02-27T02:34:46.425Z,3.80
2023-02-27T02:37:26.389Z,3.53
2023-02-27T02:40:19.716Z,3.70
2023-02-27T02:42:55.950Z,3.67
2023-02-27T02:45:40.329Z,4.23
2023-02-27T02:48:25.304Z,3.40
2023-02-27T02:51:09.955Z,3.83
2023-02-27T02:53:50.481Z,3.77
2023-02-27T02:56:24.035Z,3.10
2023-02-27T02:58:58.093Z,3.20
2023-02-27T03:01:37.355Z,3.30
2023-02-27T03:04:13.857Z,3.70
2023-02-27T03:06:48.913Z,3.47
2023-02-27T03:09:28.962Z,4.00
2023-02-27T03:11:58.938Z,3.33
2023-02-27T03:14:37.303Z,3.37
2023-02-27T03:17:16.765Z,3.77
2023-02-27T03:19:52.601Z,3.67
2023-02-27T03:22:25.660Z,3.63
2023-02-27T03:24:55.408Z,3.77
2023-02-27T03:27:23.715Z,4.00
2023-02-27T03:29:58.212Z,4.00
2023-02-27T03:32:45.929Z,3.67
2023-02-27T03:35:13.120Z,3.83
2023-02-27T03:37:57.022Z,3.70
2023-02-27T03:40:35.004Z,4.13
2023-02-27T03:43:25.607Z,3.47
2023-02-27T03:45:59.143Z,3.70
2023-02-27T03:48:25.987Z,3.10
2023-02-27T03:50:52.877Z,3.90
2023-02-27T03:53:36.305Z,3.20
2023-02-27T03:56:06.486Z,2.80
2023-02-27T03:58:33.796Z,3.20
2023-02-27T04:01:00.525Z,3.33
2023-02-27T04:03:28.107Z,4.07
2023-02-27T04:05:55.833Z,4.13
2023-02-27T04:08:43.460Z,3.40
2023-02-27T04:11:15.933Z,3.63
2023-02-27T04:13:47.781Z,3.60
2023-02-27T04:16:33.354Z,4.20
2023-02-27T04:19:16.513Z,3.67
2023-02-27T04:22:24.087Z,3.57
2023-02-27T04:25:15.920Z,3.17
2023-02-27T04:28:06.264Z,3.40
2023-02-27T04:30:44.795Z,4.10
2023-02-27T04:33:59.350Z,3.87
2023-02-27T04:36:49.734Z,4.17
2023-02-27T04:39:27.611Z,4.03
2023-02-27T04:42:06.633Z,3.90
2023-02-27T04:44:36.059Z,3.90
2023-02-27T04:47:06.566Z,3.93
2023-02-27T04:49:42.175Z,3.97
2023-02-27T04:52:15.063Z,3.57
2023-02-27T04:55:03.454Z,4.13
2023-02-27T04:57:39.088Z,3.63
2023-02-27T05:00:09.680Z,3.73
2023-02-27T05:02:42.735Z,3.30
2023-02-27T05:05:14.361Z,3.93
2023-02-27T05:08:01.950Z,4.00
2023-02-27T05:10:45.127Z,4.23
2023-02-27T05:13:18.888Z,3.90
2023-02-27T05:16:04.880Z,3.37
2023-02-27T05:18:31.812Z,3.97
2023-02-27T05:21:19.716Z,3.57
2023-02-27T05:23:55.032Z,3.97
2023-02-27T05:26:54.368Z,4.37
2023-02-27T05:29:45.514Z,3.90
2023-02-27T05:32:26.917Z,4.13
2023-02-27T05:35:29.318Z,3.90
2023-02-27T05:38:15.824Z,3.60
2023-02-27T05:40:49.539Z,3.50
2023-02-27T05:43:21.165Z,4.37
2023-02-27T05:45:52.002Z,3.80
2023-02-27T05:48:30.409Z,4.67
2023-02-27T05:50:59.150Z,3.70
2023-02-27T05:53:30.414Z,4.37
2023-02-27T05:56:01.349Z,3.87
2023-02-27T05:58:52.337Z,6.07
2023-02-27T06:01:19.000Z,4.60
2023-02-27T06:03:46.045Z,4.70
2023-02-27T06:06:16.314Z,4.67
2023-02-27T06:08:44.149Z,4.03
2023-02-27T06:11:11.166Z,4.07
2023-02-27T06:13:39.091Z,4.47
2023-02-27T06:16:10.498Z,4.17
2023-02-27T06:18:37.311Z,5.17
2023-02-27T06:21:04.580Z,4.33
2023-02-27T06:23:31.364Z,4.40
2023-02-27T06:25:58.315Z,4.57
2023-02-27T06:28:25.098Z,4.80
2023-02-27T06:30:57.168Z,4.77
2023-02-27T06:33:25.950Z,5.03
2023-02-27T06:35:53.159Z,4.77
2023-02-27T06:38:19.943Z,5.20
2023-02-27T06:40:46.625Z,5.20
2023-02-27T06:43:14.782Z,4.97
2023-02-27T06:45:41.525Z,5.57
2023-02-27T06:48:08.288Z,5.27
2023-02-27T06:50:35.230Z,4.77
2023-02-27T06:53:01.898Z,4.63
2023-02-27T06:55:28.536Z,5.10
2023-02-27T06:57:55.192Z,4.77
2023-02-27T07:00:22.247Z,4.67
2023-02-27T07:02:48.935Z,4.57
2023-02-27T07:05:15.837Z,5.27
2023-02-27T07:07:42.543Z,5.10
2023-02-27T07:10:12.394Z,5.70
2023-02-27T07:12:40.338Z,5.50
2023-02-27T07:15:10.135Z,6.33
2023-02-27T07:17:37.850Z,7.13
2023-02-27T07:20:10.454Z,8.40
2023-02-27T07:22:38.627Z,7.53
2023-02-27T07:25:06.080Z,6.30
2023-02-27T07:27:33.891Z,4.80
2023-02-27T07:30:01.107Z,4.63
2023-02-27T07:32:28.278Z,4.53
2023-02-27T07:34:54.907Z,3.70
2023-02-27T07:37:21.557Z,3.87
2023-02-27T07:39:48.276Z,3.60
2023-02-27T07:42:14.901Z,4.20
2023-02-27T07:44:41.756Z,3.80
2023-02-27T07:47:08.433Z,4.30
2023-02-27T07:49:35.091Z,4.13
2023-02-27T07:52:02.033Z,3.77
2023-02-27T07:54:28.774Z,3.73
2023-02-27T07:56:55.432Z,4.63
2023-02-27T07:59:22.080Z,4.40
2023-02-27T08:01:48.781Z,4.50
2023-02-27T08:04:15.527Z,4.23
2023-02-27T08:06:42.227Z,5.07
2023-02-27T08:09:08.906Z,4.20
2023-02-27T08:11:35.604Z,3.93
2023-02-27T08:14:02.909Z,4.10
2023-02-27T08:16:31.230Z,5.00
2023-02-27T08:18:58.619Z,5.17
2023-02-27T08:21:25.625Z,5.10
2023-02-27T08:23:52.522Z,4.50
2023-02-27T08:26:19.182Z,4.70
2023-02-27T08:28:45.900Z,4.40
2023-02-27T08:31:12.835Z,4.10
2023-02-27T08:33:39.568Z,3.93
2023-02-27T08:36:07.609Z,4.37
2023-02-27T08:38:34.268Z,4.87
2023-02-27T08:41:00.944Z,4.60
2023-02-27T08:43:27.588Z,4.37
2023-02-27T08:45:54.417Z,4.73
2023-02-27T08:48:21.232Z,4.43
2023-02-27T08:50:47.938Z,4.07
2023-02-27T08:53:14.636Z,4.10
2023-02-27T08:55:42.554Z,3.90
2023-02-27T08:58:10.489Z,4.63
2023-02-27T09:00:37.125Z,4.17
2023-02-27T09:03:03.881Z,4.40
2023-02-27T09:05:30.653Z,4.23
2023-02-27T09:07:57.322Z,4.10
2023-02-27T09:10:24.079Z,3.73
2023-02-27T09:12:50.722Z,4.10
2023-02-27T09:15:17.655Z,4.50
2023-02-27T09:17:44.427Z,4.30
2023-02-27T09:20:12.296Z,3.80
2023-02-27T09:22:39.252Z,4.10
2023-02-27T09:25:06.522Z,3.33
2023-02-27T09:27:33.708Z,3.50
2023-02-27T09:30:00.360Z,3.13
2023-02-27T09:32:27.600Z,3.10
2023-02-27T09:34:54.425Z,2.63
2023-02-27T09:37:21.156Z,2.50
2023-02-27T09:39:48.045Z,3.00
2023-02-27T09:42:19.192Z,2.40
2023-02-27T09:44:59.132Z,2.40
2023-02-27T09:47:31.352Z,2.30
2023-02-27T09:50:22.894Z,2.30
2023-02-27T09:52:49.536Z,2.47
2023-02-27T09:55:21.935Z,2.93
2023-02-27T09:58:13.600Z,2.50
2023-02-27T10:01:00.561Z,2.20
2023-02-27T10:03:57.524Z,2.57
2023-02-27T10:06:44.675Z,2.67
2023-02-27T10:09:32.803Z,3.20
2023-02-27T10:12:30.377Z,2.37
2023-02-27T10:15:05.994Z,2.73
2023-02-27T10:18:07.090Z,2.87
2023-02-27T10:20:47.347Z,2.70
2023-02-27T10:23:18.771Z,2.70
2023-02-27T10:25:49.174Z,3.37
2023-02-27T10:28:19.133Z,2.40
2023-02-27T10:30:55.025Z,2.70
2023-02-27T10:33:44.818Z,2.60
2023-02-27T10:36:23.567Z,2.77
2023-02-27T10:39:01.607Z,2.53
2023-02-27T10:41:29.004Z,3.00
2023-02-27T10:44:00.032Z,2.27
2023-02-27T10:46:29.838Z,2.33
2023-02-27T10:49:00.206Z,2.67
2023-02-27T10:51:31.404Z,2.10
2023-02-27T10:54:20.489Z,1.90
2023-02-27T10:56:56.690Z,2.97
2023-02-27T10:59:33.114Z,2.00
2023-02-27T11:02:20.953Z,2.00
2023-02-27T11:04:53.888Z,2.00
2023-02-27T11:07:31.103Z,2.03
2023-02-27T11:10:15.603Z,2.23
2023-02-27T11:12:56.527Z,1.67
2023-02-27T11:15:25.885Z,1.83
2023-02-27T11:17:53.921Z,1.73
2023-02-27T11:20:40.588Z,1.60
2023-02-27T11:23:23.055Z,1.80
2023-02-27T11:25:50.967Z,1.80
2023-02-27T11:28:30.460Z,1.87
2023-02-27T11:31:06.969Z,2.10
2023-02-27T11:33:39.480Z,1.60
2023-02-27T11:36:06.717Z,1.83
2023-02-27T11:38:34.772Z,1.83
2023-02-27T11:41:04.415Z,1.90
2023-02-27T11:43:40.070Z,1.43
2023-02-27T11:46:38.389Z,1.40
2023-02-27T11:49:25.871Z,1.47
2023-02-27T11:52:17.411Z,1.53
2023-02-27T11:54:59.663Z,1.90
2023-02-27T11:57:35.020Z,1.80
2023-02-27T12:00:14.640Z,1.90
2023-02-27T12:02:51.016Z,2.00
2023-02-27T12:05:45.846Z,2.10
2023-02-27T12:08:25.540Z,1.77
2023-02-27T12:11:20.491Z,1.97
2023-02-27T12:13:53.659Z,1.70
2023-02-27T12:16:43.750Z,1.57
2023-02-27T12:19:21.350Z,1.63
2023-02-27T12:21:54.154Z,1.60
2023-02-27T12:24:41.847Z,1.53
2023-02-27T12:27:28.343Z,1.50
2023-02-27T12:30:29.391Z,1.40
2023-02-27T12:33:08.099Z,1.93
2023-02-27T12:35:34.803Z,1.80
2023-02-27T12:38:02.538Z,1.60
2023-02-27T12:40:36.618Z,1.60
2023-02-27T12:43:26.586Z,1.53
2023-02-27T12:46:05.109Z,1.53
2023-02-27T12:48:50.648Z,1.53
2023-02-27T12:51:31.791Z,1.60
2023-02-27T12:54:16.427Z,1.73
2023-02-27T12:57:02.745Z,1.90
2023-02-27T12:59:52.271Z,1.80
2023-02-27T13:02:27.440Z,1.53
2023-02-27T13:05:17.477Z,1.80
2023-02-27T13:08:15.871Z,1.80
2023-02-27T13:11:18.529Z,1.60
2023-02-27T13:13:52.096Z,1.47
2023-02-27T13:16:41.253Z,1.70
2023-02-27T13:19:30.445Z,2.00
2023-02-27T13:22:25.934Z,2.00
2023-02-27T13:24:56.340Z,2.60
2023-02-27T13:27:26.118Z,3.70
2023-02-27T13:30:11.332Z,2.20
2023-02-27T13:33:12.046Z,2.20
2023-02-27T13:36:10.003Z,1.80
2023-02-27T13:38:48.417Z,1.70
2023-02-27T13:41:21.043Z,2.50
2023-02-27T13:43:52.540Z,1.80
2023-02-27T13:46:24.222Z,2.03
2023-02-27T13:49:29.386Z,1.87
2023-02-27T13:52:04.815Z,2.23
2023-02-27T13:54:36.297Z,1.80
2023-02-27T13:57:21.979Z,2.20
2023-02-27T13:59:57.711Z,2.00
2023-02-27T14:02:33.517Z,1.80
2023-02-27T14:05:04.237Z,2.00
2023-02-27T14:07:47.046Z,2.10
2023-02-27T14:10:22.719Z,1.90
2023-02-27T14:12:49.529Z,2.27
2023-02-27T14:15:22.303Z,1.90
2023-02-27T14:17:54.402Z,2.30
2023-02-27T14:20:30.778Z,1.77
2023-02-27T14:23:26.029Z,1.60
2023-02-27T14:26:15.742Z,2.30
2023-02-27T14:28:46.112Z,1.93
2023-02-27T14:31:30.897Z,1.90
2023-02-27T14:34:05.083Z,2.37
2023-02-27T14:36:54.466Z,2.00
2023-02-27T14:39:34.025Z,2.00
2023-02-27T14:42:06.665Z,2.00
2023-02-27T14:44:48.046Z,2.17
2023-02-27T14:47:34.463Z,1.80
2023-02-27T14:50:08.182Z,1.70
2023-02-27T14:52:42.873Z,1.60
2023-02-27T14:55:27.943Z,1.80
2023-02-27T14:58:08.918Z,1.80
2023-02-27T15:00:39.604Z,1.63
2023-02-27T15:03:19.505Z,1.80
2023-02-27T15:05:48.763Z,1.80
2023-02-27T15:08:29.605Z,1.83
2023-02-27T15:10:58.315Z,2.00
2023-02-27T15:13:34.686Z,1.97
2023-02-27T15:16:23.272Z,1.80
2023-02-27T15:18:56.898Z,1.70
2023-02-27T15:21:26.115Z,1.80
2023-02-27T15:24:04.088Z,1.80
2023-02-27T15:26:39.935Z,1.77
2023-02-27T15:29:08.661Z,1.90
2023-02-27T15:31:35.708Z,1.67
2023-02-27T15:34:03.827Z,1.80
2023-02-27T15:36:34.090Z,1.83
2023-02-27T15:39:08.366Z,1.90
2023-02-27T15:41:36.147Z,1.70
2023-02-27T15:44:03.414Z,1.70
2023-02-27T15:46:31.370Z,1.60
2023-02-27T15:48:58.608Z,1.77
2023-02-27T15:51:27.801Z,1.80
2023-02-27T15:53:58.502Z,1.80
2023-02-27T15:56:34.246Z,1.60
2023-02-27T15:59:01.668Z,2.03
2023-02-27T16:01:32.343Z,1.87
2023-02-27T16:04:05.758Z,1.70
2023-02-27T16:06:36.230Z,1.97
2023-02-27T16:09:07.536Z,1.53
2023-02-27T16:11:37.212Z,1.60
2023-02-27T16:14:05.990Z,2.00
2023-02-27T16:16:36.099Z,2.23
2023-02-27T16:19:22.500Z,1.70
2023-02-27T16:22:14.766Z,2.20
2023-02-27T16:24:42.317Z,1.80
2023-02-27T16:27:29.254Z,2.00
2023-02-27T16:30:02.489Z,2.47
2023-02-27T16:32:34.718Z,1.97
2023-02-27T16:35:07.241Z,1.80
2023-02-27T16:37:38.585Z,2.00
2023-02-27T16:40:14.515Z,1.70
2023-02-27T16:42:41.458Z,1.80
2023-02-27T16:45:10.917Z,2.00
2023-02-27T16:47:37.581Z,1.97
2023-02-27T16:50:04.457Z,1.77
2023-02-27T16:52:31.123Z,1.80
2023-02-27T16:54:57.801Z,2.10
2023-02-27T16:57:27.751Z,2.43
2023-02-27T16:59:54.558Z,1.90
2023-02-27T17:02:21.345Z,2.43
2023-02-27T17:04:49.947Z,2.10
2023-02-27T17:07:17.988Z,1.90
2023-02-27T17:09:45.970Z,2.13
2023-02-27T17:12:13.284Z,2.50
2023-02-27T17:14:39.967Z,2.20
2023-02-27T17:17:07.025Z,2.10
2023-02-27T17:19:34.268Z,1.73
2023-02-27T17:22:00.968Z,2.30
2023-02-27T17:24:27.652Z,2.40
2023-02-27T17:26:54.353Z,2.50
2023-02-27T17:29:21.451Z,2.40
2023-02-27T17:31:48.810Z,2.40
2023-02-27T17:34:18.403Z,2.30
2023-02-27T17:36:45.316Z,2.67
2023-02-27T17:39:14.206Z,2.60
2023-02-27T17:41:41.657Z,2.23
2023-02-27T17:44:10.966Z,2.57
2023-02-27T17:46:38.509Z,2.40
2023-02-27T17:49:05.330Z,2.83
2023-02-27T17:51:32.648Z,2.60
2023-02-27T17:54:04.251Z,2.70
2023-02-27T17:56:31.521Z,2.67
2023-02-27T17:58:58.665Z,2.67
2023-02-27T18:01:26.816Z,2.90
2023-02-27T18:03:54.844Z,3.20
2023-02-27T18:06:22.901Z,3.30
2023-02-27T18:08:49.723Z,2.80
2023-02-27T18:11:19.728Z,3.20
2023-02-27T18:13:47.531Z,3.20
2023-02-27T18:16:15.095Z,2.70
2023-02-27T18:18:42.812Z,2.90
2023-02-27T18:21:20.881Z,2.73
2023-02-27T18:23:48.592Z,3.17
2023-02-27T18:26:28.935Z,3.30
2023-02-27T18:29:00.282Z,3.17
2023-02-27T18:31:31.582Z,2.80
2023-02-27T18:33:58.680Z,2.87
2023-02-27T18:36:25.468Z,3.53
2023-02-27T18:38:52.279Z,4.80
2023-02-27T18:41:19.067Z,5.93
2023-02-27T18:43:45.958Z,5.30
2023-02-27T18:46:13.409Z,6.77
2023-02-27T18:48:41.163Z,3.97
2023-02-27T18:51:12.383Z,3.53
2023-02-27T18:53:40.266Z,3.47
2023-02-27T18:56:08.810Z,3.13
2023-02-27T18:58:35.625Z,3.23
2023-02-27T19:01:04.069Z,3.13
2023-02-27T19:03:31.724Z,3.50
2023-02-27T19:05:58.676Z,3.87
2023-02-27T19:08:29.039Z,4.40
2023-02-27T19:10:56.963Z,4.13
2023-02-27T19:13:24.261Z,3.53
2023-02-27T19:15:51.111Z,4.40
2023-02-27T19:18:17.977Z,3.70
2023-02-27T19:20:44.774Z,3.40
2023-02-27T19:23:11.423Z,3.43
2023-02-27T19:25:38.241Z,3.43
2023-02-27T19:28:06.130Z,3.57
2023-02-27T19:30:32.862Z,3.53
2023-02-27T19:32:59.545Z,3.83
2023-02-27T19:35:26.292Z,3.30
2023-02-27T19:37:58.046Z,3.50
2023-02-27T19:40:26.230Z,3.53
2023-02-27T19:42:52.943Z,3.70
2023-02-27T19:45:20.215Z,3.80
2023-02-27T19:47:46.919Z,3.90
2023-02-27T19:50:13.986Z,3.83
2023-02-27T19:52:40.668Z,4.10
2023-02-27T19:55:07.856Z,3.77
2023-02-27T19:57:36.887Z,3.90
2023-02-27T20:00:08.479Z,3.43
2023-02-27T20:02:35.324Z,3.67
2023-02-27T20:05:03.152Z,4.33
2023-02-27T20:07:32.026Z,4.00
2023-02-27T20:09:58.832Z,4.73
2023-02-27T20:12:25.789Z,4.00
2023-02-27T20:14:52.457Z,3.53
2023-02-27T20:17:19.342Z,3.73
2023-02-27T20:19:46.081Z,4.20
2023-02-27T20:22:15.872Z,3.90
2023-02-27T20:24:44.645Z,4.03
2023-02-27T20:27:11.657Z,4.23
2023-02-27T20:29:38.434Z,4.40
2023-02-27T20:32:05.489Z,4.40
2023-02-27T20:34:32.326Z,4.97
2023-02-27T20:37:00.228Z,4.57
2023-02-27T20:39:28.047Z,5.90
2023-02-27T20:41:54.762Z,4.53
2023-02-27T20:44:21.570Z,4.47
2023-02-27T20:46:49.408Z,5.57
2023-02-27T20:49:16.798Z,4.73
2023-02-27T20:51:44.514Z,4.17
2023-02-27T20:54:19.968Z,4.50
2023-02-27T20:56:48.276Z,4.77
2023-02-27T20:59:16.687Z,4.47
2023-02-27T21:01:51.450Z,5.43
2023-02-27T21:04:23.988Z,4.63
2023-02-27T21:06:51.503Z,4.47
2023-02-27T21:09:18.894Z,5.03
2023-02-27T21:11:45.555Z,5.60
2023-02-27T21:14:12.737Z,5.03
2023-02-27T21:16:40.578Z,5.77
2023-02-27T21:19:07.816Z,5.80
2023-02-27T21:21:36.260Z,4.77
2023-02-27T21:24:04.018Z,4.30
2023-02-27T21:26:37.945Z,4.83
2023-02-27T21:29:10.416Z,4.10
2023-02-27T21:31:38.136Z,4.17
2023-02-27T21:34:08.138Z,5.00
2023-02-27T21:36:37.548Z,5.00
2023-02-27T21:39:06.784Z,5.00
2023-02-27T21:41:35.402Z,5.50
2023-02-27T21:44:04.819Z,4.97
2023-02-27T21:46:32.479Z,5.80
2023-02-27T21:48:59.690Z,5.47
2023-02-27T21:51:39.264Z,5.53
2023-02-27T21:54:07.299Z,5.17
2023-02-27T21:56:34.173Z,5.00
2023-02-27T21:59:01.911Z,5.93
2023-02-27T22:01:29.562Z,5.57
2023-02-27T22:03:56.701Z,5.23
2023-02-27T22:06:25.199Z,5.77
2023-02-27T22:08:57.229Z,5.57
2023-02-27T22:11:25.692Z,6.13
2023-02-27T22:13:52.796Z,5.90
2023-02-27T22:16:20.038Z,5.70
2023-02-27T22:18:48.065Z,5.90
2023-02-27T22:21:21.181Z,6.13
2023-02-27T22:23:48.337Z,5.73
2023-02-27T22:26:24.278Z,5.60
2023-02-27T22:28:52.525Z,6.37
2023-02-27T22:31:21.721Z,6.10
2023-02-27T22:33:51.066Z,5.87
2023-02-27T22:36:21.253Z,6.03
2023-02-27T22:38:48.266Z,6.30
2023-02-27T22:41:17.789Z,6.10
2023-02-27T22:43:45.297Z,6.03
2023-02-27T22:46:16.932Z,6.17
2023-02-27T22:48:44.008Z,6.33
2023-02-27T22:51:14.269Z,6.40
2023-02-27T22:53:42.667Z,6.50
2023-02-27T22:56:14.729Z,6.87
2023-02-27T22:58:43.400Z,6.93
2023-02-27T23:01:22.029Z,6.37
2023-02-27T23:03:50.928Z,6.43
2023-02-27T23:06:23.715Z,7.40
2023-02-27T23:08:50.523Z,7.87
2023-02-27T23:11:18.622Z,7.50
2023-02-27T23:13:45.396Z,7.50
2023-02-27T23:16:13.585Z,7.83
2023-02-27T23:18:49.466Z,7.53
2023-02-27T23:21:18.366Z,6.80
2023-02-27T23:23:46.485Z,7.77
2023-02-27T23:26:14.115Z,7.70
2023-02-27T23:28:40.926Z,6.83
2023-02-27T23:31:08.803Z,7.97
2023-02-27T23:33:36.152Z,6.90
2023-02-27T23:36:03.875Z,7.30
2023-02-27T23:38:30.775Z,6.60
2023-02-27T23:40:57.928Z,6.40
2023-02-27T23:43:43.589Z,6.97
2023-02-27T23:46:13.260Z,6.63
2023-02-27T23:48:40.524Z,7.37
2023-02-27T23:51:08.721Z,7.07
2023-02-27T23:53:37.325Z,7.13
2023-02-27T23:56:16.174Z,7.40
2023-02-27T23:58:44.285Z,7.07
